Aviation Digital Data Service (ADDS)

Output produced by METARs form (0643 UTC 20 October 2018)
found at http://www.aviationweather.gov/metar/data/
 
DTTA 200630Z 18005KT 0800 FG SCT016 SCT023 18/182Q1019
TAF DTTA 200500Z 2006/2106 VRB03KT 9999 SCT023 
     PROB30 
     TEMPO 2006/2008 3000 BR
       
DTTR 200600Z 03004KT 9999 SCT033 18/16 Q1018
DTTG 200600Z VRB02KT 9999 FEW020 16/14 Q1018 NOSIG
TAF DTTG 200600Z 2007/2016 VRB03KT 9999 FEW020 
     PROB30 
     TEMPO 2007/2009 4000 BR 
     BECMG 2009/2011 03010KT
       
DTTF 200600Z 03008KT 8000 FEW026 16/14 Q1018 TEMPO 4000 BR
TAF DTTF 200600Z 2007/2016 03005KT 9999 FEW026 
     PROB40 
     TEMPO 2007/2009 4000 BR
       
DTMB 200630Z 26003KT 220V350 6000 BKN020 FEW023CB 21/20 Q1018
TAF DTMB 200500Z 2006/2106 28005KT 9999 SCT020 
     PROB30 
     TEMPO 2006/2008 3000 BR 
     BECMG 2007/2009 05010KT 
     PROB30 
     TEMPO 2012/2016 -RA FEW023CB
       
DTTZ 200600Z 06004KT 030V100 CAVOK 19/16 Q1017 NOSIG
TAF DTTZ 200500Z 2006/2106 09010KT 9999 FEW033
       
DTTD 200600Z 00000KT 8000 SCT026 Q////
DTTB 200600Z 00000KT 0700 FG FEW020 16/15 Q1018
DTKA 200600Z AUTO 06003KT /// 17/16 Q1018
TAF DTKA 200600Z 2007/2016 05005KT 9999 FEW020 
     TEMPO 2007/2009 1000 BR 
     BECMG 2007/2009 VRB03KT
       
DTTX 200600Z 31004KT 9999 FEW020 18/15 Q1017
TAF DTTX 200500Z 2006/2106 34010KT 9999 SCT020 
     PROB40 
     TEMPO 2006/2007 4000 BR 
     BECMG 2009/2011 08010KT 
     BECMG 2015/2017 01010KT
       
DTTJ 200630Z 35010KT 9999 SCT026 22/17 Q1017 NOSIG
TAF DTTJ 200500Z 2006/2106 02010KT 9999 FEW020